sensor_id;sensor_type;location;lat;lon;timestamp;pressure;altitude;pressure_sealevel;temperature;humidity
26531;BME280;14201;43.188;24.160;2023-01-08T00:02:04;100174.03;;;3.25;72.24
26531;BME280;14201;43.188;24.160;2023-01-08T00:04:29;100179.50;;;3.18;72.02
26531;BME280;14201;43.188;24.160;2023-01-08T00:06:55;100181.63;;;3.24;70.79
26531;BME280;14201;43.188;24.160;2023-01-08T00:09:20;100180.75;;;3.23;70.99
26531;BME280;14201;43.188;24.160;2023-01-08T00:11:45;100176.38;;;3.22;70.93
26531;BME280;14201;43.188;24.160;2023-01-08T00:14:13;100179.72;;;3.21;71.24
26531;BME280;14201;43.188;24.160;2023-01-08T00:16:38;100178.28;;;3.25;70.55
26531;BME280;14201;43.188;24.160;2023-01-08T00:19:04;100186.38;;;3.29;70.55
26531;BME280;14201;43.188;24.160;2023-01-08T00:21:29;100177.53;;;3.26;69.66
26531;BME280;14201;43.188;24.160;2023-01-08T00:23:54;100182.44;;;3.23;70.07
26531;BME280;14201;43.188;24.160;2023-01-08T00:26:20;100184.25;;;3.13;71.00
26531;BME280;14201;43.188;24.160;2023-01-08T00:28:45;100189.19;;;3.00;72.02
26531;BME280;14201;43.188;24.160;2023-01-08T00:31:11;100183.28;;;3.01;71.61
26531;BME280;14201;43.188;24.160;2023-01-08T00:33:37;100186.38;;;2.97;71.56
26531;BME280;14201;43.188;24.160;2023-01-08T00:36:12;100185.97;;;3.03;71.06
26531;BME280;14201;43.188;24.160;2023-01-08T00:38:38;100185.84;;;3.01;71.50
26531;BME280;14201;43.188;24.160;2023-01-08T00:41:03;100170.56;;;2.92;71.53
26531;BME280;14201;43.188;24.160;2023-01-08T00:43:29;100176.63;;;2.93;71.45
26531;BME280;14201;43.188;24.160;2023-01-08T00:45:54;100181.38;;;2.99;71.16
26531;BME280;14201;43.188;24.160;2023-01-08T00:48:20;100181.50;;;2.90;70.75
26531;BME280;14201;43.188;24.160;2023-01-08T00:50:49;100179.47;;;2.86;69.53
26531;BME280;14201;43.188;24.160;2023-01-08T00:53:14;100180.53;;;2.78;69.93
26531;BME280;14201;43.188;24.160;2023-01-08T00:55:40;100187.22;;;2.65;68.72
26531;BME280;14201;43.188;24.160;2023-01-08T00:58:05;100185.69;;;2.47;69.92
26531;BME280;14201;43.188;24.160;2023-01-08T01:00:30;100180.69;;;2.38;70.63
26531;BME280;14201;43.188;24.160;2023-01-08T01:02:56;100187.38;;;2.36;70.59
26531;BME280;14201;43.188;24.160;2023-01-08T01:05:21;100190.31;;;2.30;71.16
26531;BME280;14201;43.188;24.160;2023-01-08T01:07:46;100190.31;;;2.51;71.30
26531;BME280;14201;43.188;24.160;2023-01-08T01:10:12;100191.34;;;2.53;70.90
26531;BME280;14201;43.188;24.160;2023-01-08T01:12:38;100193.00;;;2.42;72.95
26531;BME280;14201;43.188;24.160;2023-01-08T01:15:07;100186.06;;;2.51;72.88
26531;BME280;14201;43.188;24.160;2023-01-08T01:17:33;100188.13;;;2.55;72.64
26531;BME280;14201;43.188;24.160;2023-01-08T01:19:59;100181.31;;;2.46;72.67
26531;BME280;14201;43.188;24.160;2023-01-08T01:22:24;100190.31;;;2.51;72.81
26531;BME280;14201;43.188;24.160;2023-01-08T01:24:49;100188.63;;;2.62;71.87
26531;BME280;14201;43.188;24.160;2023-01-08T01:27:15;100192.25;;;2.43;71.67
26531;BME280;14201;43.188;24.160;2023-01-08T01:29:40;100186.97;;;2.52;71.44
26531;BME280;14201;43.188;24.160;2023-01-08T01:32:05;100185.81;;;2.38;71.32
26531;BME280;14201;43.188;24.160;2023-01-08T01:34:31;100187.13;;;2.33;70.84
26531;BME280;14201;43.188;24.160;2023-01-08T01:36:56;100178.25;;;2.29;72.12
26531;BME280;14201;43.188;24.160;2023-01-08T01:39:22;100175.69;;;2.19;71.81
26531;BME280;14201;43.188;24.160;2023-01-08T01:41:47;100180.19;;;2.22;71.15
26531;BME280;14201;43.188;24.160;2023-01-08T01:46:57;100182.88;;;2.03;70.90
26531;BME280;14201;43.188;24.160;2023-01-08T01:49:22;100176.56;;;2.09;71.30
26531;BME280;14201;43.188;24.160;2023-01-08T01:51:48;100176.19;;;2.15;71.46
26531;BME280;14201;43.188;24.160;2023-01-08T01:54:15;100176.97;;;2.14;71.43
26531;BME280;14201;43.188;24.160;2023-01-08T01:56:42;100172.34;;;2.10;70.94
26531;BME280;14201;43.188;24.160;2023-01-08T01:59:08;100173.91;;;2.08;71.95
26531;BME280;14201;43.188;24.160;2023-01-08T02:01:34;100170.53;;;1.99;71.89
26531;BME280;14201;43.188;24.160;2023-01-08T02:03:59;100167.47;;;1.92;70.99
26531;BME280;14201;43.188;24.160;2023-01-08T02:09:00;100179.09;;;1.68;72.28
26531;BME280;14201;43.188;24.160;2023-01-08T02:14:10;100171.66;;;1.71;72.37
26531;BME280;14201;43.188;24.160;2023-01-08T02:16:40;100175.25;;;1.73;73.67
26531;BME280;14201;43.188;24.160;2023-01-08T02:19:14;100176.66;;;1.70;73.65
26531;BME280;14201;43.188;24.160;2023-01-08T02:21:45;100171.81;;;1.73;73.49
26531;BME280;14201;43.188;24.160;2023-01-08T02:26:48;100173.34;;;1.71;72.89
26531;BME280;14201;43.188;24.160;2023-01-08T02:29:17;100177.03;;;1.64;73.32
26531;BME280;14201;43.188;24.160;2023-01-08T02:31:44;100177.59;;;1.81;72.29
26531;BME280;14201;43.188;24.160;2023-01-08T02:34:10;100160.78;;;1.84;72.46
26531;BME280;14201;43.188;24.160;2023-01-08T02:36:37;100165.91;;;1.84;72.42
26531;BME280;14201;43.188;24.160;2023-01-08T02:39:14;100175.34;;;1.65;73.32
26531;BME280;14201;43.188;24.160;2023-01-08T02:44:11;100167.31;;;1.81;73.76
26531;BME280;14201;43.188;24.160;2023-01-08T02:46:41;100161.41;;;1.82;73.72
26531;BME280;14201;43.188;24.160;2023-01-08T02:49:08;100165.28;;;1.87;72.92
26531;BME280;14201;43.188;24.160;2023-01-08T02:51:39;100166.53;;;1.92;70.53
26531;BME280;14201;43.188;24.160;2023-01-08T02:54:10;100163.69;;;1.68;70.25
26531;BME280;14201;43.188;24.160;2023-01-08T02:56:39;100160.00;;;1.75;70.80
26531;BME280;14201;43.188;24.160;2023-01-08T02:59:06;100166.38;;;1.70;70.05
26531;BME280;14201;43.188;24.160;2023-01-08T03:01:32;100178.84;;;1.65;69.61
26531;BME280;14201;43.188;24.160;2023-01-08T03:03:59;100175.13;;;1.72;70.90
26531;BME280;14201;43.188;24.160;2023-01-08T03:06:28;100179.47;;;1.63;70.92
26531;BME280;14201;43.188;24.160;2023-01-08T03:08:53;100183.31;;;1.57;70.72
26531;BME280;14201;43.188;24.160;2023-01-08T03:11:19;100173.13;;;1.49;70.82
26531;BME280;14201;43.188;24.160;2023-01-08T03:16:21;100178.34;;;1.30;71.25
26531;BME280;14201;43.188;24.160;2023-01-08T03:18:51;100179.63;;;1.25;72.53
26531;BME280;14201;43.188;24.160;2023-01-08T03:21:16;100179.75;;;0.97;73.07
26531;BME280;14201;43.188;24.160;2023-01-08T03:23:43;100189.16;;;1.07;73.26
26531;BME280;14201;43.188;24.160;2023-01-08T03:26:11;100184.94;;;1.07;73.90
26531;BME280;14201;43.188;24.160;2023-01-08T03:28:40;100192.13;;;1.11;73.26
26531;BME280;14201;43.188;24.160;2023-01-08T03:31:08;100189.88;;;0.95;73.61
26531;BME280;14201;43.188;24.160;2023-01-08T03:33:34;100195.41;;;1.00;71.53
26531;BME280;14201;43.188;24.160;2023-01-08T03:36:00;100195.00;;;0.95;71.75
26531;BME280;14201;43.188;24.160;2023-01-08T03:38:31;100196.66;;;0.95;72.20
26531;BME280;14201;43.188;24.160;2023-01-08T03:41:05;100188.19;;;0.96;71.93
26531;BME280;14201;43.188;24.160;2023-01-08T03:43:33;100191.06;;;0.99;71.90
26531;BME280;14201;43.188;24.160;2023-01-08T03:46:00;100194.38;;;0.98;72.57
26531;BME280;14201;43.188;24.160;2023-01-08T03:48:27;100196.28;;;1.01;73.30
26531;BME280;14201;43.188;24.160;2023-01-08T03:50:54;100195.53;;;1.02;73.23
26531;BME280;14201;43.188;24.160;2023-01-08T03:53:20;100199.50;;;0.98;72.04
26531;BME280;14201;43.188;24.160;2023-01-08T03:55:45;100193.78;;;0.82;72.08
26531;BME280;14201;43.188;24.160;2023-01-08T03:58:10;100202.56;;;0.75;71.59
26531;BME280;14201;43.188;24.160;2023-01-08T04:00:36;100200.19;;;1.06;71.10
26531;BME280;14201;43.188;24.160;2023-01-08T04:03:01;100205.97;;;1.13;70.87
26531;BME280;14201;43.188;24.160;2023-01-08T04:05:27;100205.03;;;1.03;70.08
26531;BME280;14201;43.188;24.160;2023-01-08T04:07:55;100208.53;;;0.65;70.42
26531;BME280;14201;43.188;24.160;2023-01-08T04:10:21;100209.72;;;0.69;69.93
26531;BME280;14201;43.188;24.160;2023-01-08T04:12:46;100211.16;;;0.75;71.33
26531;BME280;14201;43.188;24.160;2023-01-08T04:15:13;100209.63;;;0.77;71.18
26531;BME280;14201;43.188;24.160;2023-01-08T04:17:38;100209.31;;;0.64;70.90
26531;BME280;14201;43.188;24.160;2023-01-08T04:20:04;100207.19;;;0.60;70.90
26531;BME280;14201;43.188;24.160;2023-01-08T04:22:29;100209.50;;;0.57;71.33
26531;BME280;14201;43.188;24.160;2023-01-08T04:24:55;100208.16;;;0.52;71.77
26531;BME280;14201;43.188;24.160;2023-01-08T04:27:20;100207.19;;;0.60;71.31
26531;BME280;14201;43.188;24.160;2023-01-08T04:29:45;100205.00;;;0.54;69.48
26531;BME280;14201;43.188;24.160;2023-01-08T04:32:11;100213.78;;;0.48;70.23
26531;BME280;14201;43.188;24.160;2023-01-08T04:34:36;100205.34;;;0.49;70.79
26531;BME280;14201;43.188;24.160;2023-01-08T04:37:01;100209.88;;;0.43;71.82
26531;BME280;14201;43.188;24.160;2023-01-08T04:39:27;100213.53;;;0.45;71.86
26531;BME280;14201;43.188;24.160;2023-01-08T04:41:52;100207.97;;;0.40;71.58
26531;BME280;14201;43.188;24.160;2023-01-08T04:44:18;100213.16;;;0.50;71.52
26531;BME280;14201;43.188;24.160;2023-01-08T04:46:43;100208.03;;;0.50;71.35
26531;BME280;14201;43.188;24.160;2023-01-08T04:49:09;100209.28;;;0.45;71.79
26531;BME280;14201;43.188;24.160;2023-01-08T04:51:34;100209.28;;;0.45;71.97
26531;BME280;14201;43.188;24.160;2023-01-08T04:54:00;100204.44;;;0.48;72.35
26531;BME280;14201;43.188;24.160;2023-01-08T04:56:25;100202.78;;;0.49;73.11
26531;BME280;14201;43.188;24.160;2023-01-08T04:58:50;100203.72;;;0.41;69.24
26531;BME280;14201;43.188;24.160;2023-01-08T05:01:24;100206.84;;;0.28;69.23
26531;BME280;14201;43.188;24.160;2023-01-08T05:04:02;100208.16;;;0.14;69.51
26531;BME280;14201;43.188;24.160;2023-01-08T05:06:28;100208.47;;;0.08;70.64
26531;BME280;14201;43.188;24.160;2023-01-08T05:08:54;100207.38;;;0.15;70.28
26531;BME280;14201;43.188;24.160;2023-01-08T05:11:20;100203.34;;;0.08;70.41
26531;BME280;14201;43.188;24.160;2023-01-08T05:13:48;100205.63;;;0.05;70.71
26531;BME280;14201;43.188;24.160;2023-01-08T05:16:14;100215.28;;;-0.01;71.97
26531;BME280;14201;43.188;24.160;2023-01-08T05:18:40;100208.34;;;-0.02;72.36
26531;BME280;14201;43.188;24.160;2023-01-08T05:21:05;100214.09;;;-0.05;72.43
26531;BME280;14201;43.188;24.160;2023-01-08T05:23:31;100209.16;;;-0.12;73.38
26531;BME280;14201;43.188;24.160;2023-01-08T05:25:57;100208.00;;;-0.15;73.25
26531;BME280;14201;43.188;24.160;2023-01-08T05:28:23;100200.81;;;-0.01;72.12
26531;BME280;14201;43.188;24.160;2023-01-08T05:30:48;100209.16;;;-0.12;73.92
26531;BME280;14201;43.188;24.160;2023-01-08T05:33:14;100213.84;;;-0.08;74.46
26531;BME280;14201;43.188;24.160;2023-01-08T05:35:39;100202.66;;;0.01;74.47
26531;BME280;14201;43.188;24.160;2023-01-08T05:38:04;100205.22;;;0.01;74.63
26531;BME280;14201;43.188;24.160;2023-01-08T05:40:30;100207.91;;;0.02;74.42
26531;BME280;14201;43.188;24.160;2023-01-08T05:42:57;100204.09;;;0.07;75.04
26531;BME280;14201;43.188;24.160;2023-01-08T05:45:22;100204.97;;;0.16;75.10
26531;BME280;14201;43.188;24.160;2023-01-08T05:47:48;100208.78;;;0.30;74.13
26531;BME280;14201;43.188;24.160;2023-01-08T05:50:13;100205.03;;;0.27;74.31
26531;BME280;14201;43.188;24.160;2023-01-08T05:52:39;100211.41;;;0.22;74.81
26531;BME280;14201;43.188;24.160;2023-01-08T05:55:04;100215.25;;;0.35;73.93
26531;BME280;14201;43.188;24.160;2023-01-08T05:57:30;100217.56;;;0.43;73.29
26531;BME280;14201;43.188;24.160;2023-01-08T05:59:55;100217.31;;;0.39;73.53
26531;BME280;14201;43.188;24.160;2023-01-08T06:02:20;100212.69;;;0.35;70.82
26531;BME280;14201;43.188;24.160;2023-01-08T06:04:46;100220.00;;;0.22;70.11
26531;BME280;14201;43.188;24.160;2023-01-08T06:07:11;100225.38;;;0.25;69.77
26531;BME280;14201;43.188;24.160;2023-01-08T06:09:36;100223.06;;;0.09;70.59
26531;BME280;14201;43.188;24.160;2023-01-08T06:12:02;100234.81;;;0.07;71.90
26531;BME280;14201;43.188;24.160;2023-01-08T06:14:27;100228.31;;;0.19;72.62
26531;BME280;14201;43.188;24.160;2023-01-08T06:16:53;100227.28;;;0.36;73.08
26531;BME280;14201;43.188;24.160;2023-01-08T06:19:18;100221.81;;;0.42;72.93
26531;BME280;14201;43.188;24.160;2023-01-08T06:21:43;100234.28;;;0.48;72.24
26531;BME280;14201;43.188;24.160;2023-01-08T06:24:09;100228.66;;;0.52;71.53
26531;BME280;14201;43.188;24.160;2023-01-08T06:26:35;100230.25;;;0.60;71.18
26531;BME280;14201;43.188;24.160;2023-01-08T06:29:00;100227.50;;;0.67;72.40
26531;BME280;14201;43.188;24.160;2023-01-08T06:31:25;100230.38;;;0.70;73.59
26531;BME280;14201;43.188;24.160;2023-01-08T06:33:51;100232.56;;;0.76;73.94
26531;BME280;14201;43.188;24.160;2023-01-08T06:36:16;100239.78;;;0.80;74.11
26531;BME280;14201;43.188;24.160;2023-01-08T06:38:41;100229.63;;;1.01;73.58
26531;BME280;14201;43.188;24.160;2023-01-08T06:41:07;100235.59;;;1.10;73.30
26531;BME280;14201;43.188;24.160;2023-01-08T06:43:34;100234.53;;;1.27;71.59
26531;BME280;14201;43.188;24.160;2023-01-08T06:46:00;100239.72;;;1.47;72.56
26531;BME280;14201;43.188;24.160;2023-01-08T06:48:25;100239.78;;;1.57;72.35
26531;BME280;14201;43.188;24.160;2023-01-08T06:50:51;100243.41;;;1.70;72.30
26531;BME280;14201;43.188;24.160;2023-01-08T06:53:17;100235.41;;;1.96;72.68
26531;BME280;14201;43.188;24.160;2023-01-08T06:55:42;100242.25;;;2.36;72.38
26531;BME280;14201;43.188;24.160;2023-01-08T06:58:08;100236.84;;;2.74;70.67
26531;BME280;14201;43.188;24.160;2023-01-08T07:00:33;100243.47;;;3.03;69.80
26531;BME280;14201;43.188;24.160;2023-01-08T07:02:59;100242.81;;;3.06;70.40
26531;BME280;14201;43.188;24.160;2023-01-08T07:05:24;100238.97;;;3.11;70.41
26531;BME280;14201;43.188;24.160;2023-01-08T07:07:49;100250.22;;;3.23;69.98
26531;BME280;14201;43.188;24.160;2023-01-08T07:10:15;100242.91;;;3.28;69.28
26531;BME280;14201;43.188;24.160;2023-01-08T07:12:40;100246.50;;;3.30;68.30
26531;BME280;14201;43.188;24.160;2023-01-08T07:15:06;100253.91;;;3.37;68.05
26531;BME280;14201;43.188;24.160;2023-01-08T07:17:32;100255.34;;;3.66;68.64
26531;BME280;14201;43.188;24.160;2023-01-08T07:19:57;100258.25;;;3.81;68.35
26531;BME280;14201;43.188;24.160;2023-01-08T07:22:23;100254.78;;;4.02;69.08
26531;BME280;14201;43.188;24.160;2023-01-08T07:24:50;100258.13;;;4.23;69.23
26531;BME280;14201;43.188;24.160;2023-01-08T07:27:15;100264.31;;;4.25;69.57
26531;BME280;14201;43.188;24.160;2023-01-08T07:29:40;100267.63;;;4.46;68.85
26531;BME280;14201;43.188;24.160;2023-01-08T07:32:06;100256.00;;;4.63;69.41
26531;BME280;14201;43.188;24.160;2023-01-08T07:34:31;100265.09;;;4.58;68.56
26531;BME280;14201;43.188;24.160;2023-01-08T07:36:59;100263.84;;;4.65;69.59
26531;BME280;14201;43.188;24.160;2023-01-08T07:39:24;100267.81;;;4.71;68.25
26531;BME280;14201;43.188;24.160;2023-01-08T07:41:49;100264.94;;;4.90;68.19
26531;BME280;14201;43.188;24.160;2023-01-08T07:44:15;100261.25;;;4.99;68.61
26531;BME280;14201;43.188;24.160;2023-01-08T07:46:40;100260.44;;;5.23;69.31
26531;BME280;14201;43.188;24.160;2023-01-08T07:49:05;100255.53;;;5.38;70.44
26531;BME280;14201;43.188;24.160;2023-01-08T07:51:31;100266.28;;;5.44;68.73
26531;BME280;14201;43.188;24.160;2023-01-08T07:53:56;100256.72;;;5.67;68.95
26531;BME280;14201;43.188;24.160;2023-01-08T07:56:22;100253.19;;;5.90;69.02
26531;BME280;14201;43.188;24.160;2023-01-08T07:58:47;100249.88;;;6.16;68.90
26531;BME280;14201;43.188;24.160;2023-01-08T08:01:13;100247.84;;;6.62;66.96
26531;BME280;14201;43.188;24.160;2023-01-08T08:03:38;100254.78;;;6.88;65.78
26531;BME280;14201;43.188;24.160;2023-01-08T08:06:04;100254.63;;;7.25;64.59
26531;BME280;14201;43.188;24.160;2023-01-08T08:08:30;100261.94;;;7.86;64.42
26531;BME280;14201;43.188;24.160;2023-01-08T08:10:55;100257.97;;;8.19;62.84
26531;BME280;14201;43.188;24.160;2023-01-08T08:13:21;100255.56;;;8.51;61.68
26531;BME280;14201;43.188;24.160;2023-01-08T08:15:46;100243.53;;;8.96;61.85
26531;BME280;14201;43.188;24.160;2023-01-08T08:18:12;100247.56;;;9.05;60.56
26531;BME280;14201;43.188;24.160;2023-01-08T08:20:37;100250.97;;;9.19;60.31
26531;BME280;14201;43.188;24.160;2023-01-08T08:23:04;100247.78;;;9.71;59.92
26531;BME280;14201;43.188;24.160;2023-01-08T08:25:30;100250.81;;;9.79;59.08
26531;BME280;14201;43.188;24.160;2023-01-08T08:27:56;100258.00;;;10.47;57.87
26531;BME280;14201;43.188;24.160;2023-01-08T08:30:22;100258.16;;;10.34;57.36
26531;BME280;14201;43.188;24.160;2023-01-08T08:32:48;100265.66;;;10.60;59.02
26531;BME280;14201;43.188;24.160;2023-01-08T08:35:13;100260.19;;;10.72;58.14
26531;BME280;14201;43.188;24.160;2023-01-08T08:37:39;100254.81;;;11.03;57.54
26531;BME280;14201;43.188;24.160;2023-01-08T08:40:04;100256.38;;;11.18;56.82
26531;BME280;14201;43.188;24.160;2023-01-08T08:42:30;100259.38;;;11.43;56.76
26531;BME280;14201;43.188;24.160;2023-01-08T08:44:55;100251.59;;;11.63;54.50
26531;BME280;14201;43.188;24.160;2023-01-08T08:47:21;100254.91;;;11.95;55.21
26531;BME280;14201;43.188;24.160;2023-01-08T08:49:46;100253.41;;;12.00;53.36
26531;BME280;14201;43.188;24.160;2023-01-08T08:52:11;100250.50;;;12.33;52.92
26531;BME280;14201;43.188;24.160;2023-01-08T08:54:37;100240.75;;;12.48;52.78
26531;BME280;14201;43.188;24.160;2023-01-08T08:57:08;100246.47;;;12.59;52.53
26531;BME280;14201;43.188;24.160;2023-01-08T08:59:34;100245.50;;;12.57;51.68
26531;BME280;14201;43.188;24.160;2023-01-08T09:02:00;100248.16;;;12.78;51.65
26531;BME280;14201;43.188;24.160;2023-01-08T09:04:25;100241.16;;;12.98;50.29
26531;BME280;14201;43.188;24.160;2023-01-08T09:06:53;100242.69;;;13.14;50.98
26531;BME280;14201;43.188;24.160;2023-01-08T09:09:18;100243.91;;;13.22;50.43
26531;BME280;14201;43.188;24.160;2023-01-08T09:11:44;100239.16;;;13.33;50.82
26531;BME280;14201;43.188;24.160;2023-01-08T09:14:09;100236.75;;;13.60;50.21
26531;BME280;14201;43.188;24.160;2023-01-08T09:16:34;100233.81;;;13.52;50.87
26531;BME280;14201;43.188;24.160;2023-01-08T09:19:01;100235.66;;;13.55;49.46
26531;BME280;14201;43.188;24.160;2023-01-08T09:21:26;100237.84;;;13.23;49.37
26531;BME280;14201;43.188;24.160;2023-01-08T09:23:52;100235.56;;;13.52;50.36
26531;BME280;14201;43.188;24.160;2023-01-08T09:26:17;100234.50;;;13.69;49.56
26531;BME280;14201;43.188;24.160;2023-01-08T09:28:42;100220.84;;;13.76;49.50
26531;BME280;14201;43.188;24.160;2023-01-08T09:31:08;100217.44;;;13.35;49.45
26531;BME280;14201;43.188;24.160;2023-01-08T09:33:33;100218.50;;;13.62;50.25
26531;BME280;14201;43.188;24.160;2023-01-08T09:35:58;100212.63;;;13.67;49.89
26531;BME280;14201;43.188;24.160;2023-01-08T09:38:24;100210.03;;;13.46;50.14
26531;BME280;14201;43.188;24.160;2023-01-08T09:41:00;100197.44;;;13.36;50.40
26531;BME280;14201;43.188;24.160;2023-01-08T09:43:27;100205.13;;;13.12;50.56
26531;BME280;14201;43.188;24.160;2023-01-08T09:45:55;100198.06;;;12.88;51.57
26531;BME280;14201;43.188;24.160;2023-01-08T09:48:26;100188.75;;;12.74;51.80
26531;BME280;14201;43.188;24.160;2023-01-08T09:50:52;100192.38;;;12.98;53.29
26531;BME280;14201;43.188;24.160;2023-01-08T09:53:18;100188.16;;;12.81;52.56
26531;BME280;14201;43.188;24.160;2023-01-08T09:55:44;100192.44;;;13.00;53.76
26531;BME280;14201;43.188;24.160;2023-01-08T10:00:48;100180.06;;;13.17;52.75
26531;BME280;14201;43.188;24.160;2023-01-08T10:03:13;100170.63;;;13.20;53.10
26531;BME280;14201;43.188;24.160;2023-01-08T10:05:39;100169.84;;;12.60;52.69
26531;BME280;14201;43.188;24.160;2023-01-08T10:08:08;100171.31;;;12.53;52.83
26531;BME280;14201;43.188;24.160;2023-01-08T10:10:35;100165.69;;;11.86;54.63
26531;BME280;14201;43.188;24.160;2023-01-08T10:13:02;100168.91;;;11.42;55.82
26531;BME280;14201;43.188;24.160;2023-01-08T10:15:28;100175.63;;;11.37;56.94
26531;BME280;14201;43.188;24.160;2023-01-08T10:17:55;100158.03;;;11.33;58.15
26531;BME280;14201;43.188;24.160;2023-01-08T10:20:23;100162.41;;;11.90;57.54
26531;BME280;14201;43.188;24.160;2023-01-08T10:22:49;100162.25;;;11.87;55.92
26531;BME280;14201;43.188;24.160;2023-01-08T10:25:22;100157.22;;;12.50;55.77
26531;BME280;14201;43.188;24.160;2023-01-08T10:27:49;100153.66;;;12.90;54.85
26531;BME280;14201;43.188;24.160;2023-01-08T10:30:16;100145.75;;;13.30;52.91
26531;BME280;14201;43.188;24.160;2023-01-08T10:32:46;100150.88;;;13.50;51.82
26531;BME280;14201;43.188;24.160;2023-01-08T10:35:15;100138.00;;;13.56;52.23
26531;BME280;14201;43.188;24.160;2023-01-08T10:37:41;100144.19;;;13.58;51.84
26531;BME280;14201;43.188;24.160;2023-01-08T10:40:16;100142.28;;;13.54;51.43
26531;BME280;14201;43.188;24.160;2023-01-08T10:42:44;100146.34;;;13.46;52.00
26531;BME280;14201;43.188;24.160;2023-01-08T10:45:20;100148.44;;;13.32;52.28
26531;BME280;14201;43.188;24.160;2023-01-08T10:47:47;100134.16;;;13.46;51.64
26531;BME280;14201;43.188;24.160;2023-01-08T10:50:18;100137.22;;;13.58;51.68
26531;BME280;14201;43.188;24.160;2023-01-08T10:52:50;100143.91;;;13.29;51.86
26531;BME280;14201;43.188;24.160;2023-01-08T10:57:51;100146.59;;;13.76;51.62
26531;BME280;14201;43.188;24.160;2023-01-08T11:00:21;100141.31;;;13.74;50.88
26531;BME280;14201;43.188;24.160;2023-01-08T11:02:46;100146.84;;;12.72;52.66
26531;BME280;14201;43.188;24.160;2023-01-08T11:05:14;100138.22;;;12.54;54.46
26531;BME280;14201;43.188;24.160;2023-01-08T11:07:39;100133.16;;;12.78;53.36
26531;BME280;14201;43.188;24.160;2023-01-08T11:10:05;100131.97;;;12.50;53.59
26531;BME280;14201;43.188;24.160;2023-01-08T11:14:57;100135.53;;;12.94;52.90
26531;BME280;14201;43.188;24.160;2023-01-08T11:17:25;100132.50;;;13.05;54.00
26531;BME280;14201;43.188;24.160;2023-01-08T11:19:51;100132.34;;;13.02;52.28
26531;BME280;14201;43.188;24.160;2023-01-08T11:22:21;100127.50;;;13.11;52.83
26531;BME280;14201;43.188;24.160;2023-01-08T11:24:46;100128.31;;;12.87;52.18
26531;BME280;14201;43.188;24.160;2023-01-08T11:27:29;100124.53;;;12.59;53.80
26531;BME280;14201;43.188;24.160;2023-01-08T11:32:39;100127.97;;;12.37;54.26
26531;BME280;14201;43.188;24.160;2023-01-08T11:35:11;100121.19;;;12.21;55.30
26531;BME280;14201;43.188;24.160;2023-01-08T11:40:27;100118.72;;;12.67;53.97
26531;BME280;14201;43.188;24.160;2023-01-08T11:43:09;100122.31;;;12.90;54.46
26531;BME280;14201;43.188;24.160;2023-01-08T11:45:41;100122.13;;;12.64;54.29
26531;BME280;14201;43.188;24.160;2023-01-08T12:05:47;100128.09;;;12.21;56.33
26531;BME280;14201;43.188;24.160;2023-01-08T12:08:22;100124.13;;;12.29;55.62
26531;BME280;14201;43.188;24.160;2023-01-08T12:10:55;100124.81;;;12.25;55.81
26531;BME280;14201;43.188;24.160;2023-01-08T12:16:10;100119.97;;;12.34;54.96
26531;BME280;14201;43.188;24.160;2023-01-08T12:18:46;100119.56;;;12.25;55.83
26531;BME280;14201;43.188;24.160;2023-01-08T12:21:18;100125.88;;;12.50;55.36
26531;BME280;14201;43.188;24.160;2023-01-08T12:29:15;100119.66;;;12.27;56.12
26531;BME280;14201;43.188;24.160;2023-01-08T12:34:46;100115.97;;;12.43;54.33
26531;BME280;14201;43.188;24.160;2023-01-08T12:37:13;100111.44;;;12.17;54.45
26531;BME280;14201;43.188;24.160;2023-01-08T12:39:42;100113.69;;;10.96;57.89
26531;BME280;14201;43.188;24.160;2023-01-08T12:42:11;100109.88;;;10.71;60.29
26531;BME280;14201;43.188;24.160;2023-01-08T12:44:38;100112.63;;;10.92;59.67
26531;BME280;14201;43.188;24.160;2023-01-08T12:47:04;100113.81;;;10.63;59.95
26531;BME280;14201;43.188;24.160;2023-01-08T12:49:39;100114.78;;;10.83;59.84
26531;BME280;14201;43.188;24.160;2023-01-08T12:52:27;100117.38;;;11.01;58.78
26531;BME280;14201;43.188;24.160;2023-01-08T12:57:43;100113.75;;;10.97;58.49
26531;BME280;14201;43.188;24.160;2023-01-08T13:07:43;100106.22;;;9.66;62.87
26531;BME280;14201;43.188;24.160;2023-01-08T13:10:18;100109.66;;;9.02;65.03
26531;BME280;14201;43.188;24.160;2023-01-08T13:12:48;100110.53;;;9.18;65.51
26531;BME280;14201;43.188;24.160;2023-01-08T13:15:21;100102.19;;;9.40;65.04
26531;BME280;14201;43.188;24.160;2023-01-08T13:17:47;100102.75;;;9.34;64.92
26531;BME280;14201;43.188;24.160;2023-01-08T13:20:17;100106.28;;;9.03;65.31
26531;BME280;14201;43.188;24.160;2023-01-08T13:22:43;100102.84;;;9.04;66.27
26531;BME280;14201;43.188;24.160;2023-01-08T13:27:42;100114.19;;;9.21;65.21
26531;BME280;14201;43.188;24.160;2023-01-08T13:32:51;100099.16;;;8.84;65.77
26531;BME280;14201;43.188;24.160;2023-01-08T13:35:21;100104.75;;;8.46;66.87
26531;BME280;14201;43.188;24.160;2023-01-08T13:46:12;100109.00;;;8.75;67.05
26531;BME280;14201;43.188;24.160;2023-01-08T13:50:57;100105.22;;;8.85;65.48
26531;BME280;14201;43.188;24.160;2023-01-08T13:53:22;100106.16;;;8.71;66.55
26531;BME280;14201;43.188;24.160;2023-01-08T13:55:56;100104.44;;;8.86;66.25
26531;BME280;14201;43.188;24.160;2023-01-08T13:58:31;100101.47;;;8.80;65.72
26531;BME280;14201;43.188;24.160;2023-01-08T14:00:58;100106.22;;;8.87;65.46
26531;BME280;14201;43.188;24.160;2023-01-08T14:03:25;100102.97;;;8.91;65.38
26531;BME280;14201;43.188;24.160;2023-01-08T14:05:51;100104.34;;;8.84;65.68
26531;BME280;14201;43.188;24.160;2023-01-08T14:08:24;100100.03;;;8.85;65.49
26531;BME280;14201;43.188;24.160;2023-01-08T14:10:50;100099.50;;;8.76;65.42